sensor_id;sensor_type;location;lat;lon;timestamp;temperature;humidity
31975;DHT22;18500;43.618;1.474;2022-08-14T00:00:13;26.90;99.90
31975;DHT22;18500;43.618;1.474;2022-08-14T00:02:39;27.00;99.90
31975;DHT22;18500;43.618;1.474;2022-08-14T00:05:07;27.10;99.90
31975;DHT22;18500;43.618;1.474;2022-08-14T00:07:33;27.10;99.90
31975;DHT22;18500;43.618;1.474;2022-08-14T00:10:04;27.10;99.90
31975;DHT22;18500;43.618;1.474;2022-08-14T00:12:32;27.20;99.90
31975;DHT22;18500;43.618;1.474;2022-08-14T00:14:59;27.20;99.90
31975;DHT22;18500;43.618;1.474;2022-08-14T00:17:24;27.10;99.90
31975;DHT22;18500;43.618;1.474;2022-08-14T00:19:51;27.10;99.90
31975;DHT22;18500;43.618;1.474;2022-08-14T00:22:17;27.10;99.90
31975;DHT22;18500;43.618;1.474;2022-08-14T00:24:44;27.00;99.90
31975;DHT22;18500;43.618;1.474;2022-08-14T00:27:10;27.00;99.90
31975;DHT22;18500;43.618;1.474;2022-08-14T00:29:35;27.00;99.90
31975;DHT22;18500;43.618;1.474;2022-08-14T00:32:01;26.90;99.90
31975;DHT22;18500;43.618;1.474;2022-08-14T00:34:27;26.80;99.90
31975;DHT22;18500;43.618;1.474;2022-08-14T00:36:52;26.70;99.90
31975;DHT22;18500;43.618;1.474;2022-08-14T00:39:18;26.60;99.90
31975;DHT22;18500;43.618;1.474;2022-08-14T00:41:44;26.60;99.90
31975;DHT22;18500;43.618;1.474;2022-08-14T00:44:10;26.40;99.90
31975;DHT22;18500;43.618;1.474;2022-08-14T00:46:37;26.30;99.90
31975;DHT22;18500;43.618;1.474;2022-08-14T00:49:03;26.10;99.90
31975;DHT22;18500;43.618;1.474;2022-08-14T00:51:29;25.90;99.90
31975;DHT22;18500;43.618;1.474;2022-08-14T00:53:58;25.80;99.90
31975;DHT22;18500;43.618;1.474;2022-08-14T00:56:24;25.40;1.00
31975;DHT22;18500;43.618;1.474;2022-08-14T00:58:50;25.30;1.00
31975;DHT22;18500;43.618;1.474;2022-08-14T01:01:16;25.30;1.00
31975;DHT22;18500;43.618;1.474;2022-08-14T01:03:44;25.30;1.00
31975;DHT22;18500;43.618;1.474;2022-08-14T01:06:11;25.20;1.00
31975;DHT22;18500;43.618;1.474;2022-08-14T01:08:39;25.00;1.00
31975;DHT22;18500;43.618;1.474;2022-08-14T01:11:09;24.80;1.00
31975;DHT22;18500;43.618;1.474;2022-08-14T01:13:37;24.60;1.00
31975;DHT22;18500;43.618;1.474;2022-08-14T01:16:08;24.50;1.00
31975;DHT22;18500;43.618;1.474;2022-08-14T01:18:34;24.40;1.00
31975;DHT22;18500;43.618;1.474;2022-08-14T01:21:23;24.30;1.00
31975;DHT22;18500;43.618;1.474;2022-08-14T01:23:50;24.30;1.00
31975;DHT22;18500;43.618;1.474;2022-08-14T01:26:18;24.10;1.00
31975;DHT22;18500;43.618;1.474;2022-08-14T01:28:46;23.90;1.00
31975;DHT22;18500;43.618;1.474;2022-08-14T01:31:18;23.80;1.00
31975;DHT22;18500;43.618;1.474;2022-08-14T01:33:48;23.80;1.00
31975;DHT22;18500;43.618;1.474;2022-08-14T01:36:15;23.70;1.00
31975;DHT22;18500;43.618;1.474;2022-08-14T01:38:43;23.40;1.00
31975;DHT22;18500;43.618;1.474;2022-08-14T01:41:15;23.10;1.00
31975;DHT22;18500;43.618;1.474;2022-08-14T01:43:50;23.10;1.00
31975;DHT22;18500;43.618;1.474;2022-08-14T01:46:18;23.00;1.00
31975;DHT22;18500;43.618;1.474;2022-08-14T01:48:44;23.20;1.00
31975;DHT22;18500;43.618;1.474;2022-08-14T01:51:12;23.10;1.00
31975;DHT22;18500;43.618;1.474;2022-08-14T01:53:44;23.10;1.00
31975;DHT22;18500;43.618;1.474;2022-08-14T01:56:11;23.00;1.00
31975;DHT22;18500;43.618;1.474;2022-08-14T01:58:37;22.90;1.00
31975;DHT22;18500;43.618;1.474;2022-08-14T02:01:03;22.90;1.00
31975;DHT22;18500;43.618;1.474;2022-08-14T02:03:30;22.90;1.00
31975;DHT22;18500;43.618;1.474;2022-08-14T02:06:00;23.10;1.00
31975;DHT22;18500;43.618;1.474;2022-08-14T02:08:27;23.10;1.00
31975;DHT22;18500;43.618;1.474;2022-08-14T02:10:57;23.10;1.00
31975;DHT22;18500;43.618;1.474;2022-08-14T02:13:42;23.20;1.00
31975;DHT22;18500;43.618;1.474;2022-08-14T02:16:10;23.10;1.00
31975;DHT22;18500;43.618;1.474;2022-08-14T02:18:36;22.90;1.00
31975;DHT22;18500;43.618;1.474;2022-08-14T02:21:02;23.00;1.00
31975;DHT22;18500;43.618;1.474;2022-08-14T02:23:30;22.80;1.00
31975;DHT22;18500;43.618;1.474;2022-08-14T02:25:57;22.80;1.00
31975;DHT22;18500;43.618;1.474;2022-08-14T02:28:24;22.80;1.00
31975;DHT22;18500;43.618;1.474;2022-08-14T02:30:51;22.90;1.00
31975;DHT22;18500;43.618;1.474;2022-08-14T02:33:16;23.00;1.00
31975;DHT22;18500;43.618;1.474;2022-08-14T02:35:42;22.90;1.00
31975;DHT22;18500;43.618;1.474;2022-08-14T02:38:08;22.70;1.00
31975;DHT22;18500;43.618;1.474;2022-08-14T02:40:34;22.60;1.00
31975;DHT22;18500;43.618;1.474;2022-08-14T02:43:03;22.50;1.00
31975;DHT22;18500;43.618;1.474;2022-08-14T02:45:29;22.40;1.00
31975;DHT22;18500;43.618;1.474;2022-08-14T02:48:02;22.50;1.00
31975;DHT22;18500;43.618;1.474;2022-08-14T02:50:29;22.50;1.00
31975;DHT22;18500;43.618;1.474;2022-08-14T02:52:55;22.50;1.00
31975;DHT22;18500;43.618;1.474;2022-08-14T02:55:22;22.40;1.00
31975;DHT22;18500;43.618;1.474;2022-08-14T02:57:51;22.40;1.00
31975;DHT22;18500;43.618;1.474;2022-08-14T03:00:17;22.40;1.00
31975;DHT22;18500;43.618;1.474;2022-08-14T03:02:42;22.60;1.00
31975;DHT22;18500;43.618;1.474;2022-08-14T03:05:08;22.40;1.00
31975;DHT22;18500;43.618;1.474;2022-08-14T03:07:37;22.40;1.00
31975;DHT22;18500;43.618;1.474;2022-08-14T03:10:03;22.30;1.00
31975;DHT22;18500;43.618;1.474;2022-08-14T03:12:28;22.30;1.00
31975;DHT22;18500;43.618;1.474;2022-08-14T03:14:56;22.40;1.00
31975;DHT22;18500;43.618;1.474;2022-08-14T03:17:23;22.60;1.00
31975;DHT22;18500;43.618;1.474;2022-08-14T03:19:48;22.60;1.00
31975;DHT22;18500;43.618;1.474;2022-08-14T03:22:17;22.60;1.00
31975;DHT22;18500;43.618;1.474;2022-08-14T03:24:42;22.40;1.00
31975;DHT22;18500;43.618;1.474;2022-08-14T03:27:08;22.40;1.00
31975;DHT22;18500;43.618;1.474;2022-08-14T03:29:35;22.40;1.00
31975;DHT22;18500;43.618;1.474;2022-08-14T03:32:00;22.50;1.00
31975;DHT22;18500;43.618;1.474;2022-08-14T03:34:26;22.40;1.00
31975;DHT22;18500;43.618;1.474;2022-08-14T03:36:52;22.20;1.00
31975;DHT22;18500;43.618;1.474;2022-08-14T03:39:21;22.30;1.00
31975;DHT22;18500;43.618;1.474;2022-08-14T03:41:49;22.20;1.00
31975;DHT22;18500;43.618;1.474;2022-08-14T03:44:15;22.30;1.00
31975;DHT22;18500;43.618;1.474;2022-08-14T03:46:42;22.30;1.00
31975;DHT22;18500;43.618;1.474;2022-08-14T03:49:08;22.30;1.00
31975;DHT22;18500;43.618;1.474;2022-08-14T03:51:35;22.30;1.00
31975;DHT22;18500;43.618;1.474;2022-08-14T03:54:04;22.30;1.00
31975;DHT22;18500;43.618;1.474;2022-08-14T03:56:33;22.20;1.00
31975;DHT22;18500;43.618;1.474;2022-08-14T03:59:03;22.20;1.00
31975;DHT22;18500;43.618;1.474;2022-08-14T04:01:32;22.20;1.00
31975;DHT22;18500;43.618;1.474;2022-08-14T04:03:58;22.10;1.00
31975;DHT22;18500;43.618;1.474;2022-08-14T04:06:27;22.10;1.00
31975;DHT22;18500;43.618;1.474;2022-08-14T04:08:53;22.20;1.00
31975;DHT22;18500;43.618;1.474;2022-08-14T04:11:19;22.20;1.00
31975;DHT22;18500;43.618;1.474;2022-08-14T04:13:46;22.20;1.00
31975;DHT22;18500;43.618;1.474;2022-08-14T04:16:15;22.10;1.00
31975;DHT22;18500;43.618;1.474;2022-08-14T04:18:48;22.10;1.00
31975;DHT22;18500;43.618;1.474;2022-08-14T04:21:15;22.20;1.00
31975;DHT22;18500;43.618;1.474;2022-08-14T04:23:43;22.20;1.00
31975;DHT22;18500;43.618;1.474;2022-08-14T04:26:11;22.00;1.00
31975;DHT22;18500;43.618;1.474;2022-08-14T04:28:39;22.00;1.00
31975;DHT22;18500;43.618;1.474;2022-08-14T04:31:05;22.10;1.00
31975;DHT22;18500;43.618;1.474;2022-08-14T04:33:32;22.00;1.00
31975;DHT22;18500;43.618;1.474;2022-08-14T04:35:58;22.10;1.00
31975;DHT22;18500;43.618;1.474;2022-08-14T04:38:24;22.10;1.00
31975;DHT22;18500;43.618;1.474;2022-08-14T04:41:08;22.10;1.00
31975;DHT22;18500;43.618;1.474;2022-08-14T04:43:52;22.10;1.00
31975;DHT22;18500;43.618;1.474;2022-08-14T04:46:21;22.10;1.00
31975;DHT22;18500;43.618;1.474;2022-08-14T04:48:47;22.20;1.00
31975;DHT22;18500;43.618;1.474;2022-08-14T04:51:15;21.90;1.00
31975;DHT22;18500;43.618;1.474;2022-08-14T04:53:47;21.90;1.00
31975;DHT22;18500;43.618;1.474;2022-08-14T04:56:16;21.80;1.00
31975;DHT22;18500;43.618;1.474;2022-08-14T04:58:42;21.70;1.00
31975;DHT22;18500;43.618;1.474;2022-08-14T05:01:09;21.60;1.00
31975;DHT22;18500;43.618;1.474;2022-08-14T05:03:36;21.70;1.00
31975;DHT22;18500;43.618;1.474;2022-08-14T05:06:08;21.70;1.00
31975;DHT22;18500;43.618;1.474;2022-08-14T05:08:34;21.60;1.00
31975;DHT22;18500;43.618;1.474;2022-08-14T05:11:02;21.60;1.00
31975;DHT22;18500;43.618;1.474;2022-08-14T05:13:29;21.60;1.00
31975;DHT22;18500;43.618;1.474;2022-08-14T05:15:56;21.70;1.00
31975;DHT22;18500;43.618;1.474;2022-08-14T05:18:34;21.70;1.00
31975;DHT22;18500;43.618;1.474;2022-08-14T05:21:03;21.80;1.00
31975;DHT22;18500;43.618;1.474;2022-08-14T05:23:32;21.70;1.00
31975;DHT22;18500;43.618;1.474;2022-08-14T05:25:59;21.80;1.00
31975;DHT22;18500;43.618;1.474;2022-08-14T05:28:29;21.90;1.00
31975;DHT22;18500;43.618;1.474;2022-08-14T05:30:56;21.90;1.00
31975;DHT22;18500;43.618;1.474;2022-08-14T05:33:25;21.90;1.00
31975;DHT22;18500;43.618;1.474;2022-08-14T05:35:53;21.90;1.00
31975;DHT22;18500;43.618;1.474;2022-08-14T05:38:33;21.70;1.00
31975;DHT22;18500;43.618;1.474;2022-08-14T05:41:11;21.70;1.00
31975;DHT22;18500;43.618;1.474;2022-08-14T05:43:38;21.70;1.00
31975;DHT22;18500;43.618;1.474;2022-08-14T05:46:06;21.70;1.00
31975;DHT22;18500;43.618;1.474;2022-08-14T05:48:32;21.70;1.00
31975;DHT22;18500;43.618;1.474;2022-08-14T05:50:58;21.80;1.00
31975;DHT22;18500;43.618;1.474;2022-08-14T05:53:25;21.80;1.00
31975;DHT22;18500;43.618;1.474;2022-08-14T05:55:51;21.80;1.00
31975;DHT22;18500;43.618;1.474;2022-08-14T05:58:18;21.90;1.00
31975;DHT22;18500;43.618;1.474;2022-08-14T06:00:44;21.90;1.00
31975;DHT22;18500;43.618;1.474;2022-08-14T06:03:16;21.90;1.00
31975;DHT22;18500;43.618;1.474;2022-08-14T06:05:44;21.80;1.00
31975;DHT22;18500;43.618;1.474;2022-08-14T06:10:43;21.90;1.00
31975;DHT22;18500;43.618;1.474;2022-08-14T06:13:09;21.90;1.00
31975;DHT22;18500;43.618;1.474;2022-08-14T06:15:35;21.90;1.00
31975;DHT22;18500;43.618;1.474;2022-08-14T06:18:00;22.00;1.00
31975;DHT22;18500;43.618;1.474;2022-08-14T06:20:27;22.10;1.00
31975;DHT22;18500;43.618;1.474;2022-08-14T06:22:52;22.30;1.00
31975;DHT22;18500;43.618;1.474;2022-08-14T06:25:18;22.50;1.00
31975;DHT22;18500;43.618;1.474;2022-08-14T06:27:45;22.40;1.00
31975;DHT22;18500;43.618;1.474;2022-08-14T06:30:16;22.40;1.00
31975;DHT22;18500;43.618;1.474;2022-08-14T06:32:43;22.20;1.00
31975;DHT22;18500;43.618;1.474;2022-08-14T06:35:10;22.30;1.00
31975;DHT22;18500;43.618;1.474;2022-08-14T06:42:50;22.40;1.00
31975;DHT22;18500;43.618;1.474;2022-08-14T06:45:16;22.50;1.00
31975;DHT22;18500;43.618;1.474;2022-08-14T06:47:44;22.70;1.00
31975;DHT22;18500;43.618;1.474;2022-08-14T06:50:12;22.90;1.00
31975;DHT22;18500;43.618;1.474;2022-08-14T06:52:38;22.90;1.00
31975;DHT22;18500;43.618;1.474;2022-08-14T06:55:08;22.90;1.00
31975;DHT22;18500;43.618;1.474;2022-08-14T06:57:45;22.40;1.00
31975;DHT22;18500;43.618;1.474;2022-08-14T07:00:22;22.30;1.00
31975;DHT22;18500;43.618;1.474;2022-08-14T07:02:49;22.50;1.00
31975;DHT22;18500;43.618;1.474;2022-08-14T07:05:35;22.50;1.00
31975;DHT22;18500;43.618;1.474;2022-08-14T07:08:19;22.60;1.00
31975;DHT22;18500;43.618;1.474;2022-08-14T07:10:49;22.40;1.00
31975;DHT22;18500;43.618;1.474;2022-08-14T07:13:15;22.40;1.00
31975;DHT22;18500;43.618;1.474;2022-08-14T07:15:45;22.40;1.00
31975;DHT22;18500;43.618;1.474;2022-08-14T07:18:13;22.80;1.00
31975;DHT22;18500;43.618;1.474;2022-08-14T07:20:40;23.10;1.00
31975;DHT22;18500;43.618;1.474;2022-08-14T07:23:08;23.20;1.00
31975;DHT22;18500;43.618;1.474;2022-08-14T07:25:38;23.40;1.00
31975;DHT22;18500;43.618;1.474;2022-08-14T07:28:15;23.20;1.00
31975;DHT22;18500;43.618;1.474;2022-08-14T07:30:41;23.20;1.00
31975;DHT22;18500;43.618;1.474;2022-08-14T07:33:08;23.20;1.00
31975;DHT22;18500;43.618;1.474;2022-08-14T07:35:35;23.10;1.00
31975;DHT22;18500;43.618;1.474;2022-08-14T07:38:03;23.20;1.00
31975;DHT22;18500;43.618;1.474;2022-08-14T07:40:28;23.00;1.00
31975;DHT22;18500;43.618;1.474;2022-08-14T07:42:54;22.70;1.00
31975;DHT22;18500;43.618;1.474;2022-08-14T07:45:20;22.80;1.00
31975;DHT22;18500;43.618;1.474;2022-08-14T07:47:46;22.90;1.00
31975;DHT22;18500;43.618;1.474;2022-08-14T07:50:17;23.00;1.00
31975;DHT22;18500;43.618;1.474;2022-08-14T07:52:45;23.10;1.00
31975;DHT22;18500;43.618;1.474;2022-08-14T07:55:13;23.10;1.00
31975;DHT22;18500;43.618;1.474;2022-08-14T07:57:40;23.40;1.00
31975;DHT22;18500;43.618;1.474;2022-08-14T08:00:12;23.90;1.00
31975;DHT22;18500;43.618;1.474;2022-08-14T08:02:44;24.10;1.00
31975;DHT22;18500;43.618;1.474;2022-08-14T08:05:11;24.10;1.00
31975;DHT22;18500;43.618;1.474;2022-08-14T08:07:38;24.20;1.00
31975;DHT22;18500;43.618;1.474;2022-08-14T08:10:19;24.20;1.00
31975;DHT22;18500;43.618;1.474;2022-08-14T08:13:06;24.30;1.00
31975;DHT22;18500;43.618;1.474;2022-08-14T08:15:35;24.20;1.00
31975;DHT22;18500;43.618;1.474;2022-08-14T08:18:05;24.40;1.00
31975;DHT22;18500;43.618;1.474;2022-08-14T08:20:36;24.60;1.00
31975;DHT22;18500;43.618;1.474;2022-08-14T08:23:03;24.20;1.00
31975;DHT22;18500;43.618;1.474;2022-08-14T08:25:32;24.40;1.00
31975;DHT22;18500;43.618;1.474;2022-08-14T08:30:25;25.00;1.00
31975;DHT22;18500;43.618;1.474;2022-08-14T08:32:53;25.00;1.00
31975;DHT22;18500;43.618;1.474;2022-08-14T08:35:25;24.80;1.00
31975;DHT22;18500;43.618;1.474;2022-08-14T08:37:54;25.00;1.00
31975;DHT22;18500;43.618;1.474;2022-08-14T08:40:27;25.10;1.00
31975;DHT22;18500;43.618;1.474;2022-08-14T08:42:53;25.20;1.00
31975;DHT22;18500;43.618;1.474;2022-08-14T08:45:20;25.30;1.00
31975;DHT22;18500;43.618;1.474;2022-08-14T08:47:46;25.40;1.00
31975;DHT22;18500;43.618;1.474;2022-08-14T08:50:23;25.40;1.00
31975;DHT22;18500;43.618;1.474;2022-08-14T08:52:51;25.30;1.00
31975;DHT22;18500;43.618;1.474;2022-08-14T08:55:29;25.50;1.00
31975;DHT22;18500;43.618;1.474;2022-08-14T08:58:06;25.10;1.00
31975;DHT22;18500;43.618;1.474;2022-08-14T09:00:34;25.00;1.00
31975;DHT22;18500;43.618;1.474;2022-08-14T09:03:01;25.30;1.00
31975;DHT22;18500;43.618;1.474;2022-08-14T09:05:29;25.20;1.00
31975;DHT22;18500;43.618;1.474;2022-08-14T09:08:09;25.10;1.00
31975;DHT22;18500;43.618;1.474;2022-08-14T09:10:34;25.10;1.00
31975;DHT22;18500;43.618;1.474;2022-08-14T09:13:00;25.20;1.00
31975;DHT22;18500;43.618;1.474;2022-08-14T09:15:27;25.10;1.00
31975;DHT22;18500;43.618;1.474;2022-08-14T09:17:53;25.10;1.00
31975;DHT22;18500;43.618;1.474;2022-08-14T09:20:19;25.20;1.00
31975;DHT22;18500;43.618;1.474;2022-08-14T09:22:46;25.40;1.00
31975;DHT22;18500;43.618;1.474;2022-08-14T09:25:12;25.60;1.00
31975;DHT22;18500;43.618;1.474;2022-08-14T09:27:38;25.80;1.00
31975;DHT22;18500;43.618;1.474;2022-08-14T09:30:05;25.60;1.00
31975;DHT22;18500;43.618;1.474;2022-08-14T09:41:21;26.30;1.00
31975;DHT22;18500;43.618;1.474;2022-08-14T09:46:54;26.50;1.00
31975;DHT22;18500;43.618;1.474;2022-08-14T09:49:35;26.20;1.00
31975;DHT22;18500;43.618;1.474;2022-08-14T09:52:09;26.50;1.00
31975;DHT22;18500;43.618;1.474;2022-08-14T09:57:05;27.20;1.00
31975;DHT22;18500;43.618;1.474;2022-08-14T09:59:45;27.10;1.00
31975;DHT22;18500;43.618;1.474;2022-08-14T10:05:09;27.80;1.00
31975;DHT22;18500;43.618;1.474;2022-08-14T10:07:44;27.60;1.00
31975;DHT22;18500;43.618;1.474;2022-08-14T10:10:26;27.50;1.00
31975;DHT22;18500;43.618;1.474;2022-08-14T10:12:53;27.10;1.00
31975;DHT22;18500;43.618;1.474;2022-08-14T10:15:22;27.00;1.00
31975;DHT22;18500;43.618;1.474;2022-08-14T10:18:02;27.10;1.00
31975;DHT22;18500;43.618;1.474;2022-08-14T10:20:58;27.00;1.00
31975;DHT22;18500;43.618;1.474;2022-08-14T10:23:27;26.80;1.00
31975;DHT22;18500;43.618;1.474;2022-08-14T10:26:02;26.80;1.00
31975;DHT22;18500;43.618;1.474;2022-08-14T10:28:37;26.70;1.00
31975;DHT22;18500;43.618;1.474;2022-08-14T10:31:03;26.30;1.00
31975;DHT22;18500;43.618;1.474;2022-08-14T10:33:31;26.60;1.00
31975;DHT22;18500;43.618;1.474;2022-08-14T10:35:58;26.70;1.00
31975;DHT22;18500;43.618;1.474;2022-08-14T10:38:29;26.30;1.00
31975;DHT22;18500;43.618;1.474;2022-08-14T10:43:38;27.30;1.00
31975;DHT22;18500;43.618;1.474;2022-08-14T10:46:15;27.40;1.00
31975;DHT22;18500;43.618;1.474;2022-08-14T10:48:54;27.60;1.00
31975;DHT22;18500;43.618;1.474;2022-08-14T10:51:27;26.80;1.00
31975;DHT22;18500;43.618;1.474;2022-08-14T10:53:55;27.20;1.00
31975;DHT22;18500;43.618;1.474;2022-08-14T10:56:31;27.40;1.00
31975;DHT22;18500;43.618;1.474;2022-08-14T10:59:04;27.90;1.00
31975;DHT22;18500;43.618;1.474;2022-08-14T11:01:35;28.10;1.00
31975;DHT22;18500;43.618;1.474;2022-08-14T11:04:01;27.90;1.00
31975;DHT22;18500;43.618;1.474;2022-08-14T11:06:27;27.80;1.00
31975;DHT22;18500;43.618;1.474;2022-08-14T11:08:54;27.80;1.00
31975;DHT22;18500;43.618;1.474;2022-08-14T11:11:21;27.70;1.00
31975;DHT22;18500;43.618;1.474;2022-08-14T11:13:54;27.50;1.00
31975;DHT22;18500;43.618;1.474;2022-08-14T11:16:23;28.10;1.00
31975;DHT22;18500;43.618;1.474;2022-08-14T11:18:49;28.40;1.00
31975;DHT22;18500;43.618;1.474;2022-08-14T11:21:19;28.60;1.00
31975;DHT22;18500;43.618;1.474;2022-08-14T11:23:48;28.50;1.00
31975;DHT22;18500;43.618;1.474;2022-08-14T11:26:16;28.00;1.00
31975;DHT22;18500;43.618;1.474;2022-08-14T11:28:49;28.70;1.00
31975;DHT22;18500;43.618;1.474;2022-08-14T11:31:20;28.50;1.00
31975;DHT22;18500;43.618;1.474;2022-08-14T11:33:49;28.60;1.00
31975;DHT22;18500;43.618;1.474;2022-08-14T11:36:16;29.10;99.90
31975;DHT22;18500;43.618;1.474;2022-08-14T11:38:43;29.10;1.00
31975;DHT22;18500;43.618;1.474;2022-08-14T11:41:13;28.90;99.90
31975;DHT22;18500;43.618;1.474;2022-08-14T11:43:47;28.30;99.90
31975;DHT22;18500;43.618;1.474;2022-08-14T11:46:14;28.10;1.00
31975;DHT22;18500;43.618;1.474;2022-08-14T11:48:48;28.60;1.00
31975;DHT22;18500;43.618;1.474;2022-08-14T11:51:21;28.70;99.90
31975;DHT22;18500;43.618;1.474;2022-08-14T11:53:54;28.80;99.90
31975;DHT22;18500;43.618;1.474;2022-08-14T11:56:20;27.70;1.00
31975;DHT22;18500;43.618;1.474;2022-08-14T11:58:53;27.20;1.00
31975;DHT22;18500;43.618;1.474;2022-08-14T12:01:27;27.20;1.00
31975;DHT22;18500;43.618;1.474;2022-08-14T12:03:54;27.50;1.00
31975;DHT22;18500;43.618;1.474;2022-08-14T12:06:23;27.50;1.00
31975;DHT22;18500;43.618;1.474;2022-08-14T12:08:50;27.60;1.00
31975;DHT22;18500;43.618;1.474;2022-08-14T12:11:19;27.40;1.00
31975;DHT22;18500;43.618;1.474;2022-08-14T12:13:45;28.30;1.00
31975;DHT22;18500;43.618;1.474;2022-08-14T12:16:13;29.00;99.90
31975;DHT22;18500;43.618;1.474;2022-08-14T12:18:44;29.30;99.90
31975;DHT22;18500;43.618;1.474;2022-08-14T12:21:23;29.40;99.90
31975;DHT22;18500;43.618;1.474;2022-08-14T12:24:05;28.60;99.90
31975;DHT22;18500;43.618;1.474;2022-08-14T12:26:31;29.50;99.90
31975;DHT22;18500;43.618;1.474;2022-08-14T12:29:13;29.20;99.90
31975;DHT22;18500;43.618;1.474;2022-08-14T12:31:39;28.90;99.90
31975;DHT22;18500;43.618;1.474;2022-08-14T12:34:12;29.30;99.90
31975;DHT22;18500;43.618;1.474;2022-08-14T12:36:39;28.60;99.90
31975;DHT22;18500;43.618;1.474;2022-08-14T12:39:25;29.80;99.90
31975;DHT22;18500;43.618;1.474;2022-08-14T12:41:53;33.80;99.90
31975;DHT22;18500;43.618;1.474;2022-08-14T12:44:35;33.50;99.90
31975;DHT22;18500;43.618;1.474;2022-08-14T12:47:09;36.70;99.90
31975;DHT22;18500;43.618;1.474;2022-08-14T12:49:37;33.70;99.90
31975;DHT22;18500;43.618;1.474;2022-08-14T12:52:04;31.40;99.90
31975;DHT22;18500;43.618;1.474;2022-08-14T12:54:32;33.50;99.90
31975;DHT22;18500;43.618;1.474;2022-08-14T12:57:11;35.80;99.90
31975;DHT22;18500;43.618;1.474;2022-08-14T12:59:39;35.20;99.90
31975;DHT22;18500;43.618;1.474;2022-08-14T13:02:05;37.90;99.90
31975;DHT22;18500;43.618;1.474;2022-08-14T13:04:32;38.30;99.90
31975;DHT22;18500;43.618;1.474;2022-08-14T13:07:02;38.80;99.90
31975;DHT22;18500;43.618;1.474;2022-08-14T13:09:34;34.70;99.90
31975;DHT22;18500;43.618;1.474;2022-08-14T13:12:04;37.60;99.90
31975;DHT22;18500;43.618;1.474;2022-08-14T13:14:31;41.00;99.90
31975;DHT22;18500;43.618;1.474;2022-08-14T13:16:59;35.70;99.90
31975;DHT22;18500;43.618;1.474;2022-08-14T13:19:29;34.70;99.90
31975;DHT22;18500;43.618;1.474;2022-08-14T13:21:55;33.40;99.90
31975;DHT22;18500;43.618;1.474;2022-08-14T13:24:22;31.70;99.90
31975;DHT22;18500;43.618;1.474;2022-08-14T13:26:52;30.20;99.90
31975;DHT22;18500;43.618;1.474;2022-08-14T13:29:22;34.20;99.90
31975;DHT22;18500;43.618;1.474;2022-08-14T13:31:52;37.70;99.90
31975;DHT22;18500;43.618;1.474;2022-08-14T13:34:24;40.20;99.90
31975;DHT22;18500;43.618;1.474;2022-08-14T13:36:51;40.60;99.90
31975;DHT22;18500;43.618;1.474;2022-08-14T13:39:19;40.20;99.90
31975;DHT22;18500;43.618;1.474;2022-08-14T13:41:45;39.80;99.90
31975;DHT22;18500;43.618;1.474;2022-08-14T13:44:12;40.80;99.90
31975;DHT22;18500;43.618;1.474;2022-08-14T13:46:40;42.20;99.90
31975;DHT22;18500;43.618;1.474;2022-08-14T13:49:06;41.10;99.90
31975;DHT22;18500;43.618;1.474;2022-08-14T13:51:38;39.90;99.90
31975;DHT22;18500;43.618;1.474;2022-08-14T13:54:05;37.60;99.90
31975;DHT22;18500;43.618;1.474;2022-08-14T13:56:34;34.70;99.90
31975;DHT22;18500;43.618;1.474;2022-08-14T13:59:01;33.50;99.90
31975;DHT22;18500;43.618;1.474;2022-08-14T14:01:27;38.60;99.90
31975;DHT22;18500;43.618;1.474;2022-08-14T14:03:55;38.50;99.90
31975;DHT22;18500;43.618;1.474;2022-08-14T14:06:23;34.30;99.90
31975;DHT22;18500;43.618;1.474;2022-08-14T14:08:55;32.50;99.90
31975;DHT22;18500;43.618;1.474;2022-08-14T14:11:21;31.70;99.90
31975;DHT22;18500;43.618;1.474;2022-08-14T14:13:55;30.50;99.90
31975;DHT22;18500;43.618;1.474;2022-08-14T14:16:22;30.10;99.90
31975;DHT22;18500;43.618;1.474;2022-08-14T14:18:50;29.70;99.90
31975;DHT22;18500;43.618;1.474;2022-08-14T14:21:22;33.70;99.90
31975;DHT22;18500;43.618;1.474;2022-08-14T14:23:51;36.70;99.90
31975;DHT22;18500;43.618;1.474;2022-08-14T14:26:18;37.60;99.90
31975;DHT22;18500;43.618;1.474;2022-08-14T14:28:50;38.50;99.90
31975;DHT22;18500;43.618;1.474;2022-08-14T14:31:24;34.90;99.90
31975;DHT22;18500;43.618;1.474;2022-08-14T14:33:51;35.60;99.90
31975;DHT22;18500;43.618;1.474;2022-08-14T14:36:21;33.40;99.90
31975;DHT22;18500;43.618;1.474;2022-08-14T14:38:59;32.60;99.90
31975;DHT22;18500;43.618;1.474;2022-08-14T14:41:28;30.40;99.90
31975;DHT22;18500;43.618;1.474;2022-08-14T14:43:54;30.20;99.90
31975;DHT22;18500;43.618;1.474;2022-08-14T14:46:22;29.90;99.90
31975;DHT22;18500;43.618;1.474;2022-08-14T14:48:48;29.20;99.90
31975;DHT22;18500;43.618;1.474;2022-08-14T14:51:15;29.30;99.90
31975;DHT22;18500;43.618;1.474;2022-08-14T14:53:42;29.80;99.90
31975;DHT22;18500;43.618;1.474;2022-08-14T14:56:08;29.90;99.90
31975;DHT22;18500;43.618;1.474;2022-08-14T14:58:39;30.10;99.90
31975;DHT22;18500;43.618;1.474;2022-08-14T15:01:07;30.10;99.90
31975;DHT22;18500;43.618;1.474;2022-08-14T15:03:34;29.60;99.90
31975;DHT22;18500;43.618;1.474;2022-08-14T15:06:01;28.90;99.90
31975;DHT22;18500;43.618;1.474;2022-08-14T15:08:27;29.10;99.90
31975;DHT22;18500;43.618;1.474;2022-08-14T15:10:55;29.10;99.90
31975;DHT22;18500;43.618;1.474;2022-08-14T15:13:21;30.00;99.90
31975;DHT22;18500;43.618;1.474;2022-08-14T15:15:46;29.70;99.90
31975;DHT22;18500;43.618;1.474;2022-08-14T15:18:12;29.60;99.90
31975;DHT22;18500;43.618;1.474;2022-08-14T15:20:38;29.70;99.90
31975;DHT22;18500;43.618;1.474;2022-08-14T15:23:04;29.20;99.90
31975;DHT22;18500;43.618;1.474;2022-08-14T15:25:30;29.40;99.90
31975;DHT22;18500;43.618;1.474;2022-08-14T15:28:00;29.20;99.90
31975;DHT22;18500;43.618;1.474;2022-08-14T15:30:26;29.40;99.90
31975;DHT22;18500;43.618;1.474;2022-08-14T15:32:55;29.10;99.90
31975;DHT22;18500;43.618;1.474;2022-08-14T15:35:21;28.70;99.90
31975;DHT22;18500;43.618;1.474;2022-08-14T15:37:47;29.10;99.90
31975;DHT22;18500;43.618;1.474;2022-08-14T15:40:13;29.30;99.90
31975;DHT22;18500;43.618;1.474;2022-08-14T15:42:39;28.80;99.90
31975;DHT22;18500;43.618;1.474;2022-08-14T15:45:09;28.20;99.90
31975;DHT22;18500;43.618;1.474;2022-08-14T15:47:37;28.40;99.90
31975;DHT22;18500;43.618;1.474;2022-08-14T15:50:07;28.70;99.90
31975;DHT22;18500;43.618;1.474;2022-08-14T15:52:34;29.00;99.90
31975;DHT22;18500;43.618;1.474;2022-08-14T15:55:03;28.80;99.90
31975;DHT22;18500;43.618;1.474;2022-08-14T15:57:29;28.80;99.90
31975;DHT22;18500;43.618;1.474;2022-08-14T15:59:54;28.40;99.90
31975;DHT22;18500;43.618;1.474;2022-08-14T16:02:38;28.20;99.90
31975;DHT22;18500;43.618;1.474;2022-08-14T16:05:04;28.30;99.90
31975;DHT22;18500;43.618;1.474;2022-08-14T16:07:30;28.30;99.90
31975;DHT22;18500;43.618;1.474;2022-08-14T16:09:56;28.30;99.90
31975;DHT22;18500;43.618;1.474;2022-08-14T16:12:22;28.30;99.90
31975;DHT22;18500;43.618;1.474;2022-08-14T16:14:48;28.00;99.90
31975;DHT22;18500;43.618;1.474;2022-08-14T16:17:13;27.60;99.90
31975;DHT22;18500;43.618;1.474;2022-08-14T16:19:40;27.70;99.90